Time;durP1;ratioP1;P1;durP2;ratioP2;P2;SDS_P1;SDS_P2;PMS_P1;PMS_P2;Temp;Humidity;BMP_temperature;BMP_pressure;BME280_temperature;BME280_humidity;BME280_pressure;Samples;Min_cycle;Max_cycle;Signal;HPM_P1;HPM_P2
2024/02/22 00:00:54;;;;;;;3.20;3.00;;;;;;;;;;6140029;29;20295;-62
2024/02/22 00:03:58;;;;;;;2.60;2.60;;;;;;;;;;6139201;29;20296;-62
2024/02/22 00:07:02;;;;;;;2.40;2.30;;;;;;;;;;6139579;29;20294;-62
2024/02/22 00:10:08;;;;;;;3.20;3.00;;;;;;;;;;6132618;29;20302;-62
2024/02/22 00:13:16;;;;;;;2.20;2.20;;;;;;;;;;6115298;29;20292;-62
2024/02/22 00:16:20;;;;;;;2.00;2.00;;;;;;;;;;6115729;29;20303;-62
2024/02/22 00:19:24;;;;;;;1.80;1.80;;;;;;;;;;6112367;29;20306;-62
2024/02/22 00:22:29;;;;;;;2.10;2.00;;;;;;;;;;6115504;29;20299;-62
2024/02/22 00:25:33;;;;;;;1.90;1.90;;;;;;;;;;6114649;29;20303;-62
2024/02/22 00:28:39;;;;;;;1.80;1.80;;;;;;;;;;6115414;29;20300;-62
2024/02/22 00:31:43;;;;;;;1.77;1.67;;;;;;;;;;6115654;29;20302;-62
2024/02/22 00:34:47;;;;;;;1.90;1.90;;;;;;;;;;6115417;29;20478;-62
2024/02/22 00:37:51;;;;;;;1.87;1.87;;;;;;;;;;6114825;29;20463;-62
2024/02/22 00:40:55;;;;;;;1.90;1.90;;;;;;;;;;6114766;29;20291;-62
2024/02/22 00:44:00;;;;;;;1.90;1.90;;;;;;;;;;6114457;29;20302;-62
2024/02/22 00:47:04;;;;;;;1.90;1.90;;;;;;;;;;6114351;29;20399;-62
2024/02/22 00:50:09;;;;;;;1.90;1.90;;;;;;;;;;6114398;29;20298;-62
2024/02/22 00:53:13;;;;;;;2.23;2.20;;;;;;;;;;6093647;29;20307;-62
2024/02/22 00:56:17;;;;;;;1.90;1.90;;;;;;;;;;6137047;29;20458;-62
2024/02/22 00:59:22;;;;;;;2.33;2.17;;;;;;;;;;6137860;29;20306;-62
2024/02/22 01:02:26;;;;;;;2.10;2.10;;;;;;;;;;6138679;29;20315;-62
2024/02/22 01:05:30;;;;;;;2.17;2.17;;;;;;;;;;6137299;29;20290;-62
2024/02/22 01:08:34;;;;;;;2.40;2.30;;;;;;;;;;6137122;29;20611;-61
2024/02/22 01:11:38;;;;;;;2.40;2.30;;;;;;;;;;6120714;29;20299;-62
2024/02/22 01:14:44;;;;;;;2.43;2.33;;;;;;;;;;6112567;29;20387;-62
2024/02/22 01:17:48;;;;;;;2.13;2.03;;;;;;;;;;6112790;29;20303;-62
2024/02/22 01:20:52;;;;;;;1.80;1.80;;;;;;;;;;6113957;29;20303;-62
2024/02/22 01:23:56;;;;;;;1.93;1.93;;;;;;;;;;6113922;29;20291;-62
2024/02/22 01:27:00;;;;;;;1.70;1.70;;;;;;;;;;6113472;29;20299;-62
2024/02/22 01:30:07;;;;;;;1.43;1.43;;;;;;;;;;6096571;29;20310;-62
2024/02/22 01:33:12;;;;;;;1.50;1.40;;;;;;;;;;6095593;29;20295;-62
2024/02/22 01:36:17;;;;;;;1.30;1.20;;;;;;;;;;6113866;29;20323;-62
2024/02/22 01:39:21;;;;;;;1.37;1.37;;;;;;;;;;6110163;29;20472;-62
2024/02/22 01:42:26;;;;;;;1.57;1.40;;;;;;;;;;6113810;29;20298;-60
2024/02/22 01:45:31;;;;;;;1.40;1.40;;;;;;;;;;6112964;29;20307;-60
2024/02/22 01:48:35;;;;;;;1.37;1.37;;;;;;;;;;6113321;29;20299;-61
2024/02/22 01:51:39;;;;;;;1.30;1.30;;;;;;;;;;6113201;29;20612;-61
2024/02/22 01:54:43;;;;;;;1.50;1.40;;;;;;;;;;6123976;29;20302;-61
2024/02/22 01:57:49;;;;;;;1.27;1.27;;;;;;;;;;6136172;29;20310;-61
2024/02/22 02:00:54;;;;;;;1.20;1.20;;;;;;;;;;6135416;29;20477;-61
2024/02/22 02:03:59;;;;;;;1.20;1.20;;;;;;;;;;6136592;29;20293;-61
2024/02/22 02:07:03;;;;;;;1.27;1.20;;;;;;;;;;6137026;29;20311;-61
2024/02/22 02:10:09;;;;;;;1.10;1.10;;;;;;;;;;6130110;29;20492;-61
2024/02/22 02:13:13;;;;;;;1.10;1.10;;;;;;;;;;6113047;29;20611;-61
2024/02/22 02:16:18;;;;;;;1.20;1.20;;;;;;;;;;6112274;29;20306;-62
2024/02/22 02:19:26;;;;;;;1.10;1.10;;;;;;;;;;6112088;29;20580;-61
2024/02/22 02:22:41;;;;;;;1.80;1.40;;;;;;;;;;6113252;29;20300;-61
2024/02/22 02:25:46;;;;;;;1.30;1.30;;;;;;;;;;6112378;29;20298;-61
2024/02/22 02:28:51;;;;;;;1.40;1.40;;;;;;;;;;6112022;29;20314;-61
2024/02/22 02:31:55;;;;;;;1.70;1.60;;;;;;;;;;6110898;29;20294;-62
2024/02/22 02:34:59;;;;;;;1.60;1.60;;;;;;;;;;6112713;29;20292;-61
2024/02/22 02:38:03;;;;;;;1.70;1.70;;;;;;;;;;6111620;29;20300;-61
2024/02/22 02:41:09;;;;;;;1.90;1.90;;;;;;;;;;6112593;29;20298;-61
2024/02/22 02:44:13;;;;;;;2.50;2.50;;;;;;;;;;6115938;29;20326;-62
2024/02/22 02:47:17;;;;;;;2.43;2.43;;;;;;;;;;6117095;29;20305;-61
2024/02/22 02:50:21;;;;;;;2.40;2.40;;;;;;;;;;6117135;29;20299;-60
2024/02/22 02:53:25;;;;;;;2.10;2.10;;;;;;;;;;6116683;29;20294;-61
2024/02/22 02:56:31;;;;;;;1.70;1.70;;;;;;;;;;6141413;29;20606;-61
2024/02/22 02:59:35;;;;;;;2.00;2.00;;;;;;;;;;6140726;29;20306;-61
2024/02/22 03:02:40;;;;;;;1.83;1.83;;;;;;;;;;6140534;29;20311;-61
2024/02/22 03:05:44;;;;;;;1.90;1.90;;;;;;;;;;6141016;29;20302;-61
2024/02/22 03:08:48;;;;;;;1.80;1.80;;;;;;;;;;6140069;29;20314;-61
2024/02/22 03:11:53;;;;;;;1.60;1.60;;;;;;;;;;6120797;29;20303;-61
2024/02/22 03:14:57;;;;;;;1.70;1.70;;;;;;;;;;6116549;29;20298;-61
2024/02/22 03:18:01;;;;;;;1.67;1.67;;;;;;;;;;6116455;29;20303;-61
2024/02/22 03:21:07;;;;;;;1.60;1.50;;;;;;;;;;6116383;29;20328;-61
2024/02/22 03:24:11;;;;;;;1.63;1.63;;;;;;;;;;6116208;29;20293;-61
2024/02/22 03:27:16;;;;;;;1.90;1.90;;;;;;;;;;6116751;29;20490;-61
2024/02/22 03:30:21;;;;;;;1.93;1.90;;;;;;;;;;6116203;29;20303;-61
2024/02/22 03:33:26;;;;;;;1.70;1.70;;;;;;;;;;6115357;29;20303;-61
2024/02/22 03:36:30;;;;;;;1.90;1.90;;;;;;;;;;6117021;29;20296;-61
2024/02/22 03:39:35;;;;;;;1.80;1.80;;;;;;;;;;6115852;29;20307;-61
2024/02/22 03:42:40;;;;;;;1.93;1.93;;;;;;;;;;6115956;29;20299;-61
2024/02/22 03:45:45;;;;;;;2.07;2.00;;;;;;;;;;6116199;29;20439;-61
2024/02/22 03:48:49;;;;;;;2.00;2.00;;;;;;;;;;6115754;29;20342;-61
2024/02/22 03:52:10;;;;;;;2.20;2.20;;;;;;;;;;6115596;29;20307;-61
2024/02/22 03:55:14;;;;;;;2.10;2.00;;;;;;;;;;6129815;29;20316;-61
2024/02/22 03:58:20;;;;;;;2.40;2.30;;;;;;;;;;6138714;29;20449;-61
2024/02/22 04:01:24;;;;;;;2.47;2.47;;;;;;;;;;6128269;29;20299;-60
2024/02/22 04:04:28;;;;;;;2.63;2.53;;;;;;;;;;6121486;29;20311;-60
2024/02/22 04:07:33;;;;;;;3.07;2.87;;;;;;;;;;6132545;29;20297;-61
2024/02/22 04:10:37;;;;;;;2.70;2.60;;;;;;;;;;6131780;29;20563;-60
2024/02/22 04:13:42;;;;;;;3.20;3.10;;;;;;;;;;6113968;29;20300;-61
2024/02/22 04:16:46;;;;;;;3.13;3.07;;;;;;;;;;6115264;29;20569;-61
2024/02/22 04:19:50;;;;;;;3.17;3.07;;;;;;;;;;6126732;29;20306;-61
2024/02/22 04:22:54;;;;;;;3.30;3.20;;;;;;;;;;6138485;29;20299;-60
2024/02/22 04:25:58;;;;;;;3.57;3.37;;;;;;;;;;6139031;29;20291;-61
2024/02/22 04:29:03;;;;;;;3.60;3.40;;;;;;;;;;6138333;29;20302;-61
2024/02/22 04:32:08;;;;;;;3.40;3.30;;;;;;;;;;6138704;29;20591;-61
2024/02/22 04:35:12;;;;;;;3.20;3.10;;;;;;;;;;6137681;29;20514;-61
2024/02/22 04:38:16;;;;;;;3.37;3.27;;;;;;;;;;6091590;29;20310;-62
2024/02/22 04:41:21;;;;;;;3.10;3.00;;;;;;;;;;6091592;29;20307;-60
2024/02/22 04:44:26;;;;;;;3.20;3.10;;;;;;;;;;6090853;29;20300;-61
2024/02/22 04:47:35;;;;;;;3.30;3.20;;;;;;;;;;6090582;29;20303;-61
2024/02/22 04:50:39;;;;;;;3.80;3.60;;;;;;;;;;6091311;29;20296;-60
2024/02/22 04:53:43;;;;;;;4.20;4.00;;;;;;;;;;6095832;29;20594;-60
2024/02/22 04:56:47;;;;;;;3.77;3.60;;;;;;;;;;6138037;29;20294;-60
2024/02/22 04:59:53;;;;;;;4.17;3.97;;;;;;;;;;6137221;29;20593;-61
2024/02/22 05:02:57;;;;;;;5.10;4.10;;;;;;;;;;6137531;29;20289;-61
2024/02/22 05:06:01;;;;;;;4.40;4.20;;;;;;;;;;6138045;29;20298;-61
2024/02/22 05:09:05;;;;;;;4.60;4.20;;;;;;;;;;6137346;29;20561;-61
2024/02/22 05:12:09;;;;;;;4.50;4.30;;;;;;;;;;6115733;29;20563;-61
2024/02/22 05:15:15;;;;;;;4.33;4.13;;;;;;;;;;6113853;29;20330;-61
2024/02/22 05:18:19;;;;;;;4.47;4.27;;;;;;;;;;6114033;29;20302;-61
2024/02/22 05:21:23;;;;;;;4.13;3.93;;;;;;;;;;6114510;29;20466;-61
2024/02/22 05:24:29;;;;;;;3.90;3.70;;;;;;;;;;6113974;29;20305;-61
2024/02/22 05:27:33;;;;;;;4.43;4.23;;;;;;;;;;6114025;29;20306;-61
2024/02/22 05:30:41;;;;;;;3.60;3.50;;;;;;;;;;6113206;29;20302;-61
2024/02/22 05:33:44;;;;;;;4.27;3.50;;;;;;;;;;6113460;29;20307;-61
2024/02/22 05:36:48;;;;;;;4.00;3.80;;;;;;;;;;6113921;29;20307;-61
2024/02/22 05:39:52;;;;;;;4.33;4.03;;;;;;;;;;6113325;29;20282;-61
2024/02/22 05:42:56;;;;;;;3.83;3.47;;;;;;;;;;6113610;29;20297;-61
2024/02/22 05:46:02;;;;;;;3.93;3.77;;;;;;;;;;6113895;29;20306;-61
2024/02/22 05:49:06;;;;;;;4.03;3.93;;;;;;;;;;6113026;29;20294;-61
2024/02/22 05:52:11;;;;;;;4.03;3.73;;;;;;;;;;6113597;29;20291;-61
2024/02/22 05:55:15;;;;;;;3.83;3.63;;;;;;;;;;6128020;29;20305;-62
2024/02/22 05:58:19;;;;;;;4.03;3.83;;;;;;;;;;6136554;29;20308;-61
2024/02/22 06:01:24;;;;;;;4.33;4.10;;;;;;;;;;6136634;29;20477;-61
2024/02/22 06:04:28;;;;;;;5.03;4.23;;;;;;;;;;6136373;29;20583;-61
2024/02/22 06:07:32;;;;;;;4.87;4.17;;;;;;;;;;6136332;29;20298;-62
2024/02/22 06:10:36;;;;;;;4.60;4.20;;;;;;;;;;6127173;29;20307;-61
2024/02/22 06:13:40;;;;;;;6.60;4.50;;;;;;;;;;6112807;29;20547;-61
2024/02/22 06:16:45;;;;;;;4.83;4.53;;;;;;;;;;6113904;29;20604;-62
2024/02/22 06:19:49;;;;;;;4.53;4.13;;;;;;;;;;6120746;29;20298;-62
2024/02/22 06:22:53;;;;;;;4.93;4.07;;;;;;;;;;6118789;29;20311;-62
2024/02/22 06:25:57;;;;;;;4.30;4.00;;;;;;;;;;6121227;29;20297;-62
2024/02/22 06:29:01;;;;;;;4.20;3.90;;;;;;;;;;6120349;29;20298;-62
2024/02/22 06:32:07;;;;;;;4.20;4.00;;;;;;;;;;6120985;29;20290;-62
2024/02/22 06:35:11;;;;;;;4.77;4.40;;;;;;;;;;6120301;29;20295;-62
2024/02/22 06:38:16;;;;;;;4.67;4.37;;;;;;;;;;6119734;29;20438;-62
2024/02/22 06:41:21;;;;;;;6.33;4.90;;;;;;;;;;6120729;29;20390;-62
2024/02/22 06:44:25;;;;;;;4.57;4.27;;;;;;;;;;6120550;29;20314;-62
2024/02/22 06:47:31;;;;;;;4.73;4.37;;;;;;;;;;6120500;29;20302;-62
2024/02/22 06:50:35;;;;;;;5.13;4.77;;;;;;;;;;6121069;29;20301;-62
2024/02/22 06:53:39;;;;;;;7.60;4.93;;;;;;;;;;6122391;29;20304;-62
2024/02/22 06:56:42;;;;;;;4.80;4.40;;;;;;;;;;6144205;29;20292;-62
2024/02/22 06:59:46;;;;;;;4.87;4.47;;;;;;;;;;6143667;29;20306;-62
2024/02/22 07:02:52;;;;;;;5.00;4.60;;;;;;;;;;6143477;29;20301;-62
2024/02/22 07:05:57;;;;;;;5.47;4.40;;;;;;;;;;6144326;29;20292;-62
2024/02/22 07:09:02;;;;;;;5.80;5.00;;;;;;;;;;6144073;29;20376;-61
2024/02/22 07:12:07;;;;;;;5.07;4.57;;;;;;;;;;6122493;29;20290;-62
2024/02/22 07:15:12;;;;;;;4.60;4.20;;;;;;;;;;6120496;29;20283;-62
2024/02/22 07:18:18;;;;;;;5.57;4.90;;;;;;;;;;6119954;29;20303;-62
2024/02/22 07:21:22;;;;;;;5.20;4.70;;;;;;;;;;6120290;29;20321;-62
2024/02/22 07:24:26;;;;;;;4.80;4.40;;;;;;;;;;6120179;29;20311;-62
2024/02/22 07:27:31;;;;;;;5.60;5.10;;;;;;;;;;6120080;29;20302;-62
2024/02/22 07:30:35;;;;;;;4.87;4.40;;;;;;;;;;6116183;29;20303;-61
2024/02/22 07:33:40;;;;;;;5.37;4.87;;;;;;;;;;6115265;29;20299;-61
2024/02/22 07:36:45;;;;;;;5.00;4.60;;;;;;;;;;6116711;29;20302;-62
2024/02/22 07:39:48;;;;;;;4.83;4.37;;;;;;;;;;6115408;29;20298;-62
2024/02/22 07:42:52;;;;;;;4.70;4.30;;;;;;;;;;6115856;29;20530;-62
2024/02/22 07:45:56;;;;;;;4.60;4.23;;;;;;;;;;6116463;29;20497;-62
2024/02/22 07:49:01;;;;;;;4.47;4.03;;;;;;;;;;6116430;29;20303;-62
2024/02/22 07:52:06;;;;;;;4.73;3.80;;;;;;;;;;6116323;29;20421;-62
2024/02/22 07:55:10;;;;;;;4.73;3.60;;;;;;;;;;6130138;29;20287;-62
2024/02/22 07:58:15;;;;;;;4.87;3.30;;;;;;;;;;6139645;29;20307;-62
2024/02/22 08:01:19;;;;;;;3.63;3.43;;;;;;;;;;6139737;29;20301;-62
2024/02/22 08:04:26;;;;;;;3.90;3.57;;;;;;;;;;6139283;29;20389;-62
2024/02/22 08:07:30;;;;;;;3.53;3.23;;;;;;;;;;6139505;29;20298;-62
2024/02/22 08:10:36;;;;;;;3.37;3.17;;;;;;;;;;6121069;29;20357;-62
2024/02/22 08:13:40;;;;;;;2.90;2.70;;;;;;;;;;6091993;29;20323;-62
2024/02/22 08:16:44;;;;;;;3.40;3.10;;;;;;;;;;6092384;29;20561;-62
2024/02/22 08:19:49;;;;;;;2.90;2.80;;;;;;;;;;6106435;29;20304;-62
2024/02/22 08:22:54;;;;;;;3.27;2.97;;;;;;;;;;6091075;29;20300;-62
2024/02/22 08:25:59;;;;;;;3.20;3.00;;;;;;;;;;6092268;29;20296;-62
2024/02/22 08:29:04;;;;;;;3.43;3.23;;;;;;;;;;6091533;29;20426;-62
2024/02/22 08:32:08;;;;;;;3.37;3.27;;;;;;;;;;6092171;29;20303;-62
2024/02/22 08:35:13;;;;;;;2.90;2.80;;;;;;;;;;6091514;29;20262;-62
2024/02/22 08:38:17;;;;;;;2.90;2.63;;;;;;;;;;6090231;29;20299;-62
2024/02/22 08:41:22;;;;;;;2.63;2.50;;;;;;;;;;6091322;29;20328;-61
2024/02/22 08:44:28;;;;;;;2.60;2.37;;;;;;;;;;6090963;29;20304;-62
2024/02/22 08:47:32;;;;;;;3.53;2.17;;;;;;;;;;6090819;29;20307;-62
2024/02/22 08:50:37;;;;;;;2.03;1.93;;;;;;;;;;6091485;29;20319;-62
2024/02/22 08:53:43;;;;;;;2.30;2.10;;;;;;;;;;6096307;29;20429;-62
2024/02/22 08:56:47;;;;;;;1.90;1.80;;;;;;;;;;6138629;29;20306;-62
2024/02/22 08:59:51;;;;;;;2.20;2.10;;;;;;;;;;6137685;29;20543;-62
2024/02/22 09:02:56;;;;;;;2.43;2.03;;;;;;;;;;6137284;29;20299;-62
2024/02/22 09:06:02;;;;;;;2.37;2.20;;;;;;;;;;6138238;29;20297;-62
2024/02/22 09:09:08;;;;;;;3.13;2.00;;;;;;;;;;6137446;29;20297;-62
2024/02/22 09:12:13;;;;;;;2.43;1.90;;;;;;;;;;6115695;29;20314;-62
2024/02/22 09:15:17;;;;;;;2.40;2.00;;;;;;;;;;6113912;29;20307;-61
2024/02/22 09:18:21;;;;;;;2.07;1.97;;;;;;;;;;6113583;29;20299;-62
2024/02/22 09:21:26;;;;;;;2.30;2.13;;;;;;;;;;6114336;29;20356;-61
2024/02/22 09:24:30;;;;;;;2.90;2.27;;;;;;;;;;6113299;29;20306;-62
2024/02/22 09:27:34;;;;;;;2.77;2.27;;;;;;;;;;6113496;29;20325;-62
2024/02/22 09:30:38;;;;;;;6.57;2.20;;;;;;;;;;6114228;29;20302;-63
2024/02/22 09:33:43;;;;;;;2.30;2.10;;;;;;;;;;6113738;29;20314;-62
2024/02/22 09:36:48;;;;;;;4.43;2.30;;;;;;;;;;6114209;29;20608;-61
2024/02/22 09:39:52;;;;;;;3.20;2.57;;;;;;;;;;6113566;29;20299;-62
2024/02/22 09:42:56;;;;;;;6.33;2.60;;;;;;;;;;6113515;29;20299;-62
2024/02/22 09:46:00;;;;;;;3.83;2.20;;;;;;;;;;6113500;29;20307;-62
2024/02/22 09:49:04;;;;;;;6.10;2.60;;;;;;;;;;6113274;29;20289;-62
2024/02/22 09:52:14;;;;;;;3.20;2.50;;;;;;;;;;6113127;29;20291;-61
2024/02/22 09:55:19;;;;;;;4.70;3.77;;;;;;;;;;6128541;29;20307;-62
2024/02/22 09:58:24;;;;;;;5.57;3.00;;;;;;;;;;6136883;29;20335;-62
2024/02/22 10:01:31;;;;;;;13.63;3.17;;;;;;;;;;6136312;29;20302;-62
2024/02/22 10:04:35;;;;;;;3.30;3.03;;;;;;;;;;6136436;29;20310;-62
2024/02/22 10:07:41;;;;;;;12.50;3.60;;;;;;;;;;6136516;29;20306;-62
2024/02/22 10:10:47;;;;;;;5.83;3.77;;;;;;;;;;6126127;29;20551;-62
2024/02/22 10:13:58;;;;;;;7.73;3.40;;;;;;;;;;6112764;29;20310;-63
2024/02/22 10:17:06;;;;;;;8.83;3.90;;;;;;;;;;6113705;29;20291;-62
2024/02/22 10:20:11;;;;;;;9.23;3.63;;;;;;;;;;6112784;29;20308;-62
2024/02/22 10:23:18;;;;;;;8.37;3.50;;;;;;;;;;6112725;29;20592;-62
2024/02/22 10:26:22;;;;;;;7.70;3.80;;;;;;;;;;6113420;29;20313;-62
2024/02/22 10:29:26;;;;;;;9.73;3.90;;;;;;;;;;6112219;29;20390;-62
2024/02/22 10:32:30;;;;;;;11.37;3.77;;;;;;;;;;6112749;29;20373;-62
2024/02/22 10:35:35;;;;;;;14.60;3.90;;;;;;;;;;6113365;29;20295;-62
2024/02/22 10:38:40;;;;;;;12.90;3.97;;;;;;;;;;6112920;29;20307;-62
2024/02/22 10:41:47;;;;;;;13.83;4.40;;;;;;;;;;6113509;29;20311;-62
2024/02/22 10:44:51;;;;;;;7.83;3.87;;;;;;;;;;6112528;29;20327;-62
2024/02/22 10:47:56;;;;;;;7.87;4.00;;;;;;;;;;6112525;29;20294;-62
2024/02/22 10:51:04;;;;;;;9.73;4.03;;;;;;;;;;6112876;29;20300;-62
2024/02/22 10:54:11;;;;;;;10.60;4.27;;;;;;;;;;6118449;29;20330;-62
2024/02/22 10:57:16;;;;;;;8.60;4.43;;;;;;;;;;6136550;29;20384;-62
2024/02/22 11:00:21;;;;;;;15.33;4.20;;;;;;;;;;6136027;29;20319;-61
2024/02/22 11:03:25;;;;;;;12.23;4.20;;;;;;;;;;6136909;29;20623;-61
2024/02/22 11:06:29;;;;;;;8.70;3.47;;;;;;;;;;6140800;29;20294;-62
2024/02/22 11:09:41;;;;;;;5.30;3.43;;;;;;;;;;6139200;29;20526;-62
2024/02/22 11:12:45;;;;;;;7.33;3.30;;;;;;;;;;6116750;29;20307;-60
2024/02/22 11:15:49;;;;;;;8.43;3.67;;;;;;;;;;6117109;29;20300;-62
2024/02/22 11:19:05;;;;;;;7.33;3.60;;;;;;;;;;6116563;29;20475;-61
2024/02/22 11:22:14;;;;;;;8.67;3.60;;;;;;;;;;6117182;29;20296;-62
2024/02/22 11:25:23;;;;;;;9.27;3.87;;;;;;;;;;6116394;29;20304;-61
2024/02/22 11:28:27;;;;;;;6.53;3.17;;;;;;;;;;6116252;29;20303;-61
2024/02/22 11:31:32;;;;;;;6.27;3.07;;;;;;;;;;6116976;29;20303;-61
2024/02/22 11:34:36;;;;;;;4.97;3.27;;;;;;;;;;6116263;29;20308;-61
2024/02/22 11:37:40;;;;;;;11.30;3.47;;;;;;;;;;6116368;29;20390;-61
2024/02/22 11:40:45;;;;;;;10.52;4.38;;;;;;;;;;6115152;29;20480;-61
2024/02/22 11:43:49;;;;;;;9.90;3.60;;;;;;;;;;6115647;29;20399;-61
2024/02/22 11:46:53;;;;;;;10.10;3.33;;;;;;;;;;6114963;29;20312;-61
2024/02/22 11:49:58;;;;;;;9.48;3.35;;;;;;;;;;6115544;29;20303;-61
2024/02/22 11:53:02;;;;;;;11.15;3.60;;;;;;;;;;6116145;29;20299;-61
2024/02/22 11:56:09;;;;;;;9.27;3.37;;;;;;;;;;6138274;29;20481;-61
2024/02/22 11:59:13;;;;;;;12.77;3.87;;;;;;;;;;6139269;29;20602;-62
2024/02/22 12:02:18;;;;;;;8.17;3.90;;;;;;;;;;6139523;29;20555;-62
2024/02/22 12:05:24;;;;;;;6.20;3.77;;;;;;;;;;6139127;29;20569;-61
2024/02/22 12:08:28;;;;;;;6.00;3.60;;;;;;;;;;6138907;29;20294;-63
2024/02/22 12:11:34;;;;;;;9.18;4.68;;;;;;;;;;6122520;29;20308;-61
2024/02/22 12:14:38;;;;;;;9.75;4.30;;;;;;;;;;6115125;29;20331;-61
2024/02/22 12:17:43;;;;;;;15.77;5.03;;;;;;;;;;6115236;29;20352;-61
2024/02/22 12:20:47;;;;;;;14.30;5.77;;;;;;;;;;6115936;29;20295;-61
2024/02/22 12:23:52;;;;;;;10.93;5.10;;;;;;;;;;6115239;29;20612;-61
2024/02/22 12:26:58;;;;;;;10.85;5.32;;;;;;;;;;6115737;29;20296;-61
2024/02/22 12:30:03;;;;;;;13.55;5.28;;;;;;;;;;6115276;29;20303;-61
2024/02/22 12:33:09;;;;;;;13.70;5.20;;;;;;;;;;6115589;29;20586;-62
2024/02/22 12:36:14;;;;;;;13.88;5.78;;;;;;;;;;6115473;29;20299;-62
2024/02/22 12:39:19;;;;;;;10.15;4.68;;;;;;;;;;6114832;29;20497;-62
2024/02/22 12:42:24;;;;;;;12.17;4.80;;;;;;;;;;6115110;29;20304;-62
2024/02/22 12:45:28;;;;;;;12.85;5.28;;;;;;;;;;6114283;29;20303;-62
2024/02/22 12:48:32;;;;;;;17.58;4.95;;;;;;;;;;6114299;29;20303;-62
2024/02/22 12:51:36;;;;;;;12.40;5.03;;;;;;;;;;6115447;29;20451;-62
2024/02/22 12:54:40;;;;;;;12.17;4.83;;;;;;;;;;6124421;29;20302;-60
2024/02/22 12:57:45;;;;;;;10.27;5.40;;;;;;;;;;6138041;29;20580;-61
2024/02/22 13:00:49;;;;;;;13.57;5.38;;;;;;;;;;6138463;29;20302;-60
2024/02/22 13:03:53;;;;;;;11.30;5.30;;;;;;;;;;6137816;29;20481;-61
2024/02/22 13:06:57;;;;;;;15.20;5.10;;;;;;;;;;6137844;29;20371;-61
2024/02/22 13:10:01;;;;;;;9.23;5.20;;;;;;;;;;6132359;29;20319;-61
2024/02/22 13:13:06;;;;;;;9.60;4.55;;;;;;;;;;6114217;29;20291;-62
2024/02/22 13:16:10;;;;;;;5.95;4.43;;;;;;;;;;6114286;29;20291;-61
2024/02/22 13:19:14;;;;;;;8.30;4.32;;;;;;;;;;6113934;29;20300;-61
2024/02/22 13:22:18;;;;;;;11.77;4.17;;;;;;;;;;6114839;29;20303;-61
2024/02/22 13:25:22;;;;;;;13.00;4.33;;;;;;;;;;6113855;29;20311;-61
2024/02/22 13:28:27;;;;;;;5.70;3.80;;;;;;;;;;6112828;29;20300;-61
2024/02/22 13:31:31;;;;;;;9.90;3.27;;;;;;;;;;6114192;29;20302;-61
2024/02/22 13:34:36;;;;;;;12.30;3.70;;;;;;;;;;6113636;29;20478;-61
2024/02/22 13:37:42;;;;;;;6.43;3.13;;;;;;;;;;6113535;29;20300;-61
2024/02/22 13:40:46;;;;;;;7.23;2.93;;;;;;;;;;6113896;29;20295;-61
2024/02/22 13:43:51;;;;;;;5.10;3.50;;;;;;;;;;6113041;29;20452;-63
2024/02/22 13:46:56;;;;;;;9.90;3.50;;;;;;;;;;6113309;29;20354;-61
2024/02/22 13:50:01;;;;;;;8.63;3.80;;;;;;;;;;6113137;29;20303;-62
2024/02/22 13:53:05;;;;;;;6.28;3.30;;;;;;;;;;6113191;29;20383;-61
2024/02/22 13:56:09;;;;;;;4.37;3.07;;;;;;;;;;6135392;29;20294;-62
2024/02/22 13:59:15;;;;;;;11.03;3.40;;;;;;;;;;6136782;29;20299;-61
2024/02/22 14:02:23;;;;;;;11.80;3.67;;;;;;;;;;6137557;29;20291;-62
2024/02/22 14:05:28;;;;;;;5.63;3.33;;;;;;;;;;6136384;29;20556;-61
2024/02/22 14:08:32;;;;;;;8.00;3.43;;;;;;;;;;6136443;29;20326;-61
2024/02/22 14:11:37;;;;;;;6.60;3.07;;;;;;;;;;6119399;29;20365;-61
2024/02/22 14:14:42;;;;;;;4.20;2.90;;;;;;;;;;6112869;29;20298;-61
2024/02/22 14:17:46;;;;;;;8.43;3.33;;;;;;;;;;6113022;29;20300;-62
2024/02/22 14:20:50;;;;;;;11.30;3.30;;;;;;;;;;6113433;29;20298;-61
2024/02/22 14:23:55;;;;;;;6.90;2.87;;;;;;;;;;6113095;29;20303;-61
2024/02/22 14:26:59;;;;;;;6.63;3.13;;;;;;;;;;6113558;29;20591;-61
2024/02/22 14:30:09;;;;;;;10.63;3.50;;;;;;;;;;6112630;29;20340;-61
2024/02/22 14:33:13;;;;;;;4.83;2.83;;;;;;;;;;6112645;29;20307;-61
2024/02/22 14:36:18;;;;;;;13.57;3.60;;;;;;;;;;6113331;29;20457;-61
2024/02/22 14:39:22;;;;;;;14.33;3.70;;;;;;;;;;6114738;29;20300;-61
2024/02/22 14:42:26;;;;;;;7.93;3.40;;;;;;;;;;6117786;29;20608;-61
2024/02/22 14:45:31;;;;;;;4.50;3.20;;;;;;;;;;6117166;29;20391;-61
2024/02/22 14:48:36;;;;;;;9.60;3.97;;;;;;;;;;6117126;29;20486;-61
2024/02/22 14:51:43;;;;;;;6.07;4.13;;;;;;;;;;6117893;29;20295;-61
2024/02/22 14:54:46;;;;;;;12.87;4.37;;;;;;;;;;6128457;29;20582;-61
2024/02/22 14:57:52;;;;;;;9.93;4.40;;;;;;;;;;6140872;29;20298;-61
2024/02/22 15:00:57;;;;;;;13.20;5.03;;;;;;;;;;6141422;29;20293;-61
2024/02/22 15:04:01;;;;;;;9.07;4.37;;;;;;;;;;6140232;29;20295;-61
2024/02/22 15:07:06;;;;;;;9.50;5.00;;;;;;;;;;6140655;29;20303;-62
2024/02/22 15:10:10;;;;;;;6.77;4.30;;;;;;;;;;6134037;29;20287;-61
2024/02/22 15:13:14;;;;;;;10.27;4.53;;;;;;;;;;6116499;29;20308;-61
2024/02/22 15:16:19;;;;;;;10.87;4.80;;;;;;;;;;6117008;29;20306;-61
2024/02/22 15:19:23;;;;;;;12.27;5.43;;;;;;;;;;6116253;29;20299;-61
2024/02/22 15:22:27;;;;;;;12.03;5.00;;;;;;;;;;6116827;29;20302;-61
2024/02/22 15:25:31;;;;;;;14.10;5.90;;;;;;;;;;6116546;29;20296;-61
2024/02/22 15:28:35;;;;;;;16.07;5.30;;;;;;;;;;6116441;29;20307;-61
2024/02/22 15:31:40;;;;;;;14.50;5.70;;;;;;;;;;6116475;29;20303;-61
2024/02/22 15:34:45;;;;;;;10.80;5.70;;;;;;;;;;6116078;29;20307;-61
2024/02/22 15:37:49;;;;;;;11.13;6.43;;;;;;;;;;6116342;29;20326;-61
2024/02/22 15:40:53;;;;;;;26.10;6.70;;;;;;;;;;6115767;29;20295;-61
2024/02/22 15:43:57;;;;;;;13.80;6.53;;;;;;;;;;6115565;29;20299;-62
2024/02/22 15:47:02;;;;;;;12.03;6.73;;;;;;;;;;6115952;29;20302;-61
2024/02/22 15:50:07;;;;;;;16.43;7.20;;;;;;;;;;6114790;29;20295;-62
2024/02/22 15:53:12;;;;;;;15.67;7.20;;;;;;;;;;6116206;29;20290;-62
2024/02/22 15:56:16;;;;;;;18.30;7.53;;;;;;;;;;6139215;29;20299;-62
2024/02/22 15:59:20;;;;;;;15.43;7.40;;;;;;;;;;6139435;29;20306;-62
2024/02/22 16:02:25;;;;;;;17.40;7.43;;;;;;;;;;6138485;29;20452;-62
2024/02/22 16:05:29;;;;;;;19.37;7.90;;;;;;;;;;6139174;29;20527;-62
2024/02/22 16:08:33;;;;;;;22.10;7.90;;;;;;;;;;6139133;29;20438;-62
2024/02/22 16:11:37;;;;;;;15.37;7.70;;;;;;;;;;6121865;29;20298;-63
2024/02/22 16:14:42;;;;;;;20.27;8.43;;;;;;;;;;6115581;29;20299;-62
2024/02/22 16:17:47;;;;;;;17.53;7.63;;;;;;;;;;6115421;29;20316;-62
2024/02/22 16:20:51;;;;;;;20.30;8.67;;;;;;;;;;6115496;29;20571;-62
2024/02/22 16:23:55;;;;;;;15.43;8.13;;;;;;;;;;6115120;29;20294;-62
2024/02/22 16:26:59;;;;;;;22.63;8.80;;;;;;;;;;6115611;29;20579;-62
2024/02/22 16:30:04;;;;;;;22.53;9.30;;;;;;;;;;6115163;29;20311;-62
2024/02/22 16:33:09;;;;;;;21.23;9.03;;;;;;;;;;6115052;29;20299;-62
2024/02/22 16:36:15;;;;;;;19.07;8.87;;;;;;;;;;6115418;29;20300;-62
2024/02/22 16:39:20;;;;;;;23.23;9.83;;;;;;;;;;6114428;29;20603;-62
2024/02/22 16:42:37;;;;;;;20.70;9.90;;;;;;;;;;6114186;29;20304;-62
2024/02/22 16:45:41;;;;;;;21.13;10.27;;;;;;;;;;6114811;29;20299;-62
2024/02/22 16:48:47;;;;;;;22.13;10.03;;;;;;;;;;6114254;29;20375;-62
2024/02/22 16:51:51;;;;;;;20.47;9.23;;;;;;;;;;6115077;29;20292;-63
2024/02/22 16:54:55;;;;;;;22.83;9.03;;;;;;;;;;6126784;29;20300;-62
2024/02/22 16:57:59;;;;;;;19.87;8.57;;;;;;;;;;6138091;29;20298;-62
2024/02/22 17:01:07;;;;;;;16.23;8.47;;;;;;;;;;6138180;29;20302;-62
2024/02/22 17:04:12;;;;;;;22.90;9.37;;;;;;;;;;6137886;29;20548;-62
2024/02/22 17:07:16;;;;;;;20.40;8.90;;;;;;;;;;6138443;29;20582;-61
2024/02/22 17:10:20;;;;;;;23.30;9.53;;;;;;;;;;6130196;29;20306;-61
2024/02/22 17:13:24;;;;;;;19.83;9.93;;;;;;;;;;6114006;29;20295;-61
2024/02/22 17:16:29;;;;;;;18.90;9.33;;;;;;;;;;6114332;29;20542;-61
2024/02/22 17:19:34;;;;;;;22.07;10.23;;;;;;;;;;6113844;29;20312;-62
2024/02/22 17:22:38;;;;;;;25.47;10.37;;;;;;;;;;6113657;29;20322;-62
2024/02/22 17:25:43;;;;;;;21.93;10.70;;;;;;;;;;6112827;29;20302;-62
2024/02/22 17:28:47;;;;;;;23.73;10.70;;;;;;;;;;6113413;29;20309;-61
2024/02/22 17:31:51;;;;;;;25.90;11.87;;;;;;;;;;6113439;29;20299;-63
2024/02/22 17:34:56;;;;;;;25.30;12.07;;;;;;;;;;6113889;29;20295;-63
2024/02/22 17:38:02;;;;;;;29.57;11.80;;;;;;;;;;6113520;29;20308;-62
2024/02/22 17:41:06;;;;;;;29.33;12.90;;;;;;;;;;6113637;29;20298;-61
2024/02/22 17:44:10;;;;;;;30.73;12.80;;;;;;;;;;6113116;29;20327;-61
2024/02/22 17:47:14;;;;;;;34.20;13.63;;;;;;;;;;6113429;29;20303;-62
2024/02/22 17:50:20;;;;;;;34.13;13.43;;;;;;;;;;6113317;29;20570;-61
2024/02/22 17:53:26;;;;;;;29.13;11.83;;;;;;;;;;6113330;29;20311;-62
2024/02/22 17:56:30;;;;;;;29.33;11.87;;;;;;;;;;6137160;29;20298;-61
2024/02/22 17:59:35;;;;;;;25.47;11.87;;;;;;;;;;6136676;29;20299;-65
2024/02/22 18:02:42;;;;;;;30.80;12.30;;;;;;;;;;6136768;29;20314;-62
2024/02/22 18:05:49;;;;;;;29.07;12.20;;;;;;;;;;6137072;29;20590;-62
2024/02/22 18:08:55;;;;;;;25.63;10.53;;;;;;;;;;6136198;29;20302;-62
2024/02/22 18:12:00;;;;;;;23.27;10.97;;;;;;;;;;6116190;29;20291;-62
2024/02/22 18:15:05;;;;;;;26.43;11.17;;;;;;;;;;6112195;29;20303;-62
2024/02/22 18:18:09;;;;;;;23.93;10.47;;;;;;;;;;6112605;29;20398;-62
2024/02/22 18:21:15;;;;;;;28.43;11.73;;;;;;;;;;6113245;29;20306;-61